sensor_id;sensor_type;location;lat;lon;timestamp;temperature;humidity
71128;SHT30;59249;59.736;30.568;2022-07-05T00:00:05;21.45;69.41
71128;SHT30;59249;59.736;30.568;2022-07-05T00:02:39;21.56;69.93
71128;SHT30;59249;59.736;30.568;2022-07-05T00:05:08;21.59;69.68
71128;SHT30;59249;59.736;30.568;2022-07-05T00:07:38;21.68;69.34
71128;SHT30;59249;59.736;30.568;2022-07-05T00:10:07;21.60;69.72
71128;SHT30;59249;59.736;30.568;2022-07-05T00:12:37;21.65;69.58
71128;SHT30;59249;59.736;30.568;2022-07-05T00:15:06;21.72;69.33
71128;SHT30;59249;59.736;30.568;2022-07-05T00:17:35;21.66;69.03
71128;SHT30;59249;59.736;30.568;2022-07-05T00:20:04;21.52;69.72
71128;SHT30;59249;59.736;30.568;2022-07-05T00:22:33;21.36;69.73
71128;SHT30;59249;59.736;30.568;2022-07-05T00:25:04;21.33;69.72
71128;SHT30;59249;59.736;30.568;2022-07-05T00:27:32;21.26;69.87
71128;SHT30;59249;59.736;30.568;2022-07-05T00:30:02;21.35;69.89
71128;SHT30;59249;59.736;30.568;2022-07-05T00:32:31;21.44;69.47
71128;SHT30;59249;59.736;30.568;2022-07-05T00:34:59;21.35;69.77
71128;SHT30;59249;59.736;30.568;2022-07-05T00:37:29;21.30;69.42
71128;SHT30;59249;59.736;30.568;2022-07-05T00:39:58;21.31;69.91
71128;SHT30;59249;59.736;30.568;2022-07-05T00:42:31;21.29;70.09
71128;SHT30;59249;59.736;30.568;2022-07-05T00:44:59;21.32;69.58
71128;SHT30;59249;59.736;30.568;2022-07-05T00:47:30;21.33;69.62
71128;SHT30;59249;59.736;30.568;2022-07-05T00:50:00;21.34;69.42
71128;SHT30;59249;59.736;30.568;2022-07-05T00:52:29;21.37;69.46
71128;SHT30;59249;59.736;30.568;2022-07-05T00:54:59;21.45;69.14
71128;SHT30;59249;59.736;30.568;2022-07-05T00:57:29;21.45;69.17
71128;SHT30;59249;59.736;30.568;2022-07-05T00:59:59;21.49;69.11
71128;SHT30;59249;59.736;30.568;2022-07-05T01:02:29;21.50;69.18
71128;SHT30;59249;59.736;30.568;2022-07-05T01:04:58;21.55;69.38
71128;SHT30;59249;59.736;30.568;2022-07-05T01:07:28;21.55;69.65
71128;SHT30;59249;59.736;30.568;2022-07-05T01:09:57;21.53;69.67
71128;SHT30;59249;59.736;30.568;2022-07-05T01:12:26;21.51;70.10
71128;SHT30;59249;59.736;30.568;2022-07-05T01:14:55;21.45;70.33
71128;SHT30;59249;59.736;30.568;2022-07-05T01:17:27;21.54;70.23
71128;SHT30;59249;59.736;30.568;2022-07-05T01:19:56;21.55;70.03
71128;SHT30;59249;59.736;30.568;2022-07-05T01:22:26;21.63;70.16
71128;SHT30;59249;59.736;30.568;2022-07-05T01:24:56;21.47;70.82
71128;SHT30;59249;59.736;30.568;2022-07-05T01:27:25;21.43;70.63
71128;SHT30;59249;59.736;30.568;2022-07-05T01:29:54;21.41;70.84
71128;SHT30;59249;59.736;30.568;2022-07-05T01:32:23;21.31;71.18
71128;SHT30;59249;59.736;30.568;2022-07-05T01:34:52;21.22;71.11
71128;SHT30;59249;59.736;30.568;2022-07-05T01:37:21;21.21;71.59
71128;SHT30;59249;59.736;30.568;2022-07-05T01:39:51;21.22;71.39
71128;SHT30;59249;59.736;30.568;2022-07-05T01:42:21;21.25;71.36
71128;SHT30;59249;59.736;30.568;2022-07-05T01:44:50;21.12;72.12
71128;SHT30;59249;59.736;30.568;2022-07-05T01:47:19;21.06;72.73
71128;SHT30;59249;59.736;30.568;2022-07-05T01:49:51;20.87;73.28
71128;SHT30;59249;59.736;30.568;2022-07-05T01:52:21;20.68;74.03
71128;SHT30;59249;59.736;30.568;2022-07-05T01:54:50;20.73;73.62
71128;SHT30;59249;59.736;30.568;2022-07-05T01:57:20;20.87;72.85
71128;SHT30;59249;59.736;30.568;2022-07-05T01:59:49;20.96;71.88
71128;SHT30;59249;59.736;30.568;2022-07-05T02:02:18;21.10;71.74
71128;SHT30;59249;59.736;30.568;2022-07-05T02:04:47;21.12;71.12
71128;SHT30;59249;59.736;30.568;2022-07-05T02:07:16;21.09;71.95
71128;SHT30;59249;59.736;30.568;2022-07-05T02:09:45;20.96;71.92
71128;SHT30;59249;59.736;30.568;2022-07-05T02:12:14;20.84;72.28
71128;SHT30;59249;59.736;30.568;2022-07-05T02:14:44;20.82;72.19
71128;SHT30;59249;59.736;30.568;2022-07-05T02:17:17;20.85;72.03
71128;SHT30;59249;59.736;30.568;2022-07-05T02:19:50;20.90;71.79
71128;SHT30;59249;59.736;30.568;2022-07-05T02:22:20;20.91;72.35
71128;SHT30;59249;59.736;30.568;2022-07-05T02:24:48;20.92;72.49
71128;SHT30;59249;59.736;30.568;2022-07-05T02:27:23;20.82;72.00
71128;SHT30;59249;59.736;30.568;2022-07-05T02:29:54;20.72;72.86
71128;SHT30;59249;59.736;30.568;2022-07-05T02:32:31;20.75;73.41
71128;SHT30;59249;59.736;30.568;2022-07-05T02:35:02;20.68;73.42
71128;SHT30;59249;59.736;30.568;2022-07-05T02:37:31;20.75;73.12
71128;SHT30;59249;59.736;30.568;2022-07-05T02:40:02;20.71;73.25
71128;SHT30;59249;59.736;30.568;2022-07-05T02:42:36;20.75;73.26
71128;SHT30;59249;59.736;30.568;2022-07-05T02:45:09;20.73;72.79
71128;SHT30;59249;59.736;30.568;2022-07-05T02:47:39;20.79;72.49
71128;SHT30;59249;59.736;30.568;2022-07-05T02:50:09;20.82;71.98
71128;SHT30;59249;59.736;30.568;2022-07-05T02:52:43;20.85;71.88
71128;SHT30;59249;59.736;30.568;2022-07-05T02:55:13;20.85;72.05
71128;SHT30;59249;59.736;30.568;2022-07-05T02:57:42;20.90;72.02
71128;SHT30;59249;59.736;30.568;2022-07-05T03:00:15;20.94;71.63
71128;SHT30;59249;59.736;30.568;2022-07-05T03:02:46;20.94;71.39
71128;SHT30;59249;59.736;30.568;2022-07-05T03:05:15;21.01;71.63
71128;SHT30;59249;59.736;30.568;2022-07-05T03:07:53;21.09;71.07
71128;SHT30;59249;59.736;30.568;2022-07-05T03:10:23;21.02;68.91
71128;SHT30;59249;59.736;30.568;2022-07-05T03:12:53;21.00;69.31
71128;SHT30;59249;59.736;30.568;2022-07-05T03:15:23;21.03;69.55
71128;SHT30;59249;59.736;30.568;2022-07-05T03:17:52;21.02;69.76
71128;SHT30;59249;59.736;30.568;2022-07-05T03:20:23;21.04;69.80
71128;SHT30;59249;59.736;30.568;2022-07-05T03:22:53;21.05;69.65
71128;SHT30;59249;59.736;30.568;2022-07-05T03:25:28;21.17;69.88
71128;SHT30;59249;59.736;30.568;2022-07-05T03:27:58;21.54;68.56
71128;SHT30;59249;59.736;30.568;2022-07-05T03:30:29;21.75;68.10
71128;SHT30;59249;59.736;30.568;2022-07-05T03:32:57;21.57;68.72
71128;SHT30;59249;59.736;30.568;2022-07-05T03:35:28;21.62;68.75
71128;SHT30;59249;59.736;30.568;2022-07-05T03:37:57;21.52;68.94
71128;SHT30;59249;59.736;30.568;2022-07-05T03:40:26;21.34;69.33
71128;SHT30;59249;59.736;30.568;2022-07-05T03:42:55;21.10;69.53
71128;SHT30;59249;59.736;30.568;2022-07-05T03:45:29;20.94;69.65
71128;SHT30;59249;59.736;30.568;2022-07-05T03:47:59;20.84;69.47
71128;SHT30;59249;59.736;30.568;2022-07-05T03:50:49;20.71;69.56
71128;SHT30;59249;59.736;30.568;2022-07-05T03:53:18;20.71;69.68
71128;SHT30;59249;59.736;30.568;2022-07-05T03:55:47;20.72;69.91
71128;SHT30;59249;59.736;30.568;2022-07-05T03:58:18;20.61;69.55
71128;SHT30;59249;59.736;30.568;2022-07-05T04:00:48;20.64;69.67
71128;SHT30;59249;59.736;30.568;2022-07-05T04:03:20;20.66;69.61
71128;SHT30;59249;59.736;30.568;2022-07-05T04:05:51;20.76;69.63
71128;SHT30;59249;59.736;30.568;2022-07-05T04:08:20;21.14;69.38
71128;SHT30;59249;59.736;30.568;2022-07-05T04:10:50;21.43;68.54
71128;SHT30;59249;59.736;30.568;2022-07-05T04:13:21;21.59;68.07
71128;SHT30;59249;59.736;30.568;2022-07-05T04:15:54;21.86;67.36
71128;SHT30;59249;59.736;30.568;2022-07-05T04:18:23;22.25;66.20
71128;SHT30;59249;59.736;30.568;2022-07-05T04:20:54;22.26;66.45
71128;SHT30;59249;59.736;30.568;2022-07-05T04:23:22;22.24;66.35
71128;SHT30;59249;59.736;30.568;2022-07-05T04:25:51;22.32;66.15
71128;SHT30;59249;59.736;30.568;2022-07-05T04:28:33;22.40;66.05
71128;SHT30;59249;59.736;30.568;2022-07-05T04:31:05;22.33;66.71
71128;SHT30;59249;59.736;30.568;2022-07-05T04:33:39;22.40;66.60
71128;SHT30;59249;59.736;30.568;2022-07-05T04:36:10;22.39;66.22
71128;SHT30;59249;59.736;30.568;2022-07-05T04:38:39;22.39;66.54
71128;SHT30;59249;59.736;30.568;2022-07-05T04:41:08;22.42;66.23
71128;SHT30;59249;59.736;30.568;2022-07-05T04:43:38;22.49;66.05
71128;SHT30;59249;59.736;30.568;2022-07-05T04:46:12;22.54;66.30
71128;SHT30;59249;59.736;30.568;2022-07-05T04:48:41;22.54;66.26
71128;SHT30;59249;59.736;30.568;2022-07-05T04:51:12;22.45;66.26
71128;SHT30;59249;59.736;30.568;2022-07-05T04:53:42;22.47;66.49
71128;SHT30;59249;59.736;30.568;2022-07-05T04:56:10;22.48;66.75
71128;SHT30;59249;59.736;30.568;2022-07-05T04:58:41;22.59;66.61
71128;SHT30;59249;59.736;30.568;2022-07-05T05:01:11;22.56;67.11
71128;SHT30;59249;59.736;30.568;2022-07-05T05:03:40;22.67;66.98
71128;SHT30;59249;59.736;30.568;2022-07-05T05:06:08;22.76;66.90
71128;SHT30;59249;59.736;30.568;2022-07-05T05:08:37;22.83;66.52
71128;SHT30;59249;59.736;30.568;2022-07-05T05:11:06;22.80;66.61
71128;SHT30;59249;59.736;30.568;2022-07-05T05:13:34;22.80;66.52
71128;SHT30;59249;59.736;30.568;2022-07-05T05:16:03;22.74;66.31
71128;SHT30;59249;59.736;30.568;2022-07-05T05:18:33;22.77;66.06
71128;SHT30;59249;59.736;30.568;2022-07-05T05:21:02;22.83;66.12
71128;SHT30;59249;59.736;30.568;2022-07-05T05:23:31;22.89;65.93
71128;SHT30;59249;59.736;30.568;2022-07-05T05:26:00;22.99;65.47
71128;SHT30;59249;59.736;30.568;2022-07-05T05:28:28;22.99;66.75
71128;SHT30;59249;59.736;30.568;2022-07-05T05:30:57;22.85;68.08
71128;SHT30;59249;59.736;30.568;2022-07-05T05:33:25;22.83;68.28
71128;SHT30;59249;59.736;30.568;2022-07-05T05:35:56;22.67;68.80
71128;SHT30;59249;59.736;30.568;2022-07-05T05:38:24;22.71;68.78
71128;SHT30;59249;59.736;30.568;2022-07-05T05:40:53;22.73;68.90
71128;SHT30;59249;59.736;30.568;2022-07-05T05:43:22;22.76;68.69
71128;SHT30;59249;59.736;30.568;2022-07-05T05:45:51;22.89;68.59
71128;SHT30;59249;59.736;30.568;2022-07-05T05:48:19;22.81;69.01
71128;SHT30;59249;59.736;30.568;2022-07-05T05:50:48;22.87;68.80
71128;SHT30;59249;59.736;30.568;2022-07-05T05:53:19;23.19;67.94
71128;SHT30;59249;59.736;30.568;2022-07-05T05:55:54;23.18;67.72
71128;SHT30;59249;59.736;30.568;2022-07-05T05:58:24;23.41;67.00
71128;SHT30;59249;59.736;30.568;2022-07-05T06:00:53;23.50;66.59
71128;SHT30;59249;59.736;30.568;2022-07-05T06:03:23;23.58;65.91
71128;SHT30;59249;59.736;30.568;2022-07-05T06:05:52;23.53;65.96
71128;SHT30;59249;59.736;30.568;2022-07-05T06:08:22;23.56;65.78
71128;SHT30;59249;59.736;30.568;2022-07-05T06:10:51;23.61;65.79
71128;SHT30;59249;59.736;30.568;2022-07-05T06:13:28;23.60;65.85
71128;SHT30;59249;59.736;30.568;2022-07-05T06:15:57;23.69;65.79
71128;SHT30;59249;59.736;30.568;2022-07-05T06:18:25;23.82;65.69
71128;SHT30;59249;59.736;30.568;2022-07-05T06:20:54;23.97;65.59
71128;SHT30;59249;59.736;30.568;2022-07-05T06:23:24;24.01;65.78
71128;SHT30;59249;59.736;30.568;2022-07-05T06:25:53;23.95;65.80
71128;SHT30;59249;59.736;30.568;2022-07-05T06:28:21;23.95;65.79
71128;SHT30;59249;59.736;30.568;2022-07-05T06:30:50;23.84;66.52
71128;SHT30;59249;59.736;30.568;2022-07-05T06:33:20;23.84;66.63
71128;SHT30;59249;59.736;30.568;2022-07-05T06:35:48;23.87;66.70
71128;SHT30;59249;59.736;30.568;2022-07-05T06:38:17;23.78;67.45
71128;SHT30;59249;59.736;30.568;2022-07-05T06:40:47;23.70;67.18
71128;SHT30;59249;59.736;30.568;2022-07-05T06:43:16;23.67;66.99
71128;SHT30;59249;59.736;30.568;2022-07-05T06:46:02;23.88;66.85
71128;SHT30;59249;59.736;30.568;2022-07-05T06:48:30;24.15;66.32
71128;SHT30;59249;59.736;30.568;2022-07-05T06:50:59;24.30;65.81
71128;SHT30;59249;59.736;30.568;2022-07-05T06:53:28;24.43;65.77
71128;SHT30;59249;59.736;30.568;2022-07-05T06:55:58;24.52;65.35
71128;SHT30;59249;59.736;30.568;2022-07-05T06:58:26;24.56;65.27
71128;SHT30;59249;59.736;30.568;2022-07-05T07:00:55;24.48;65.56
71128;SHT30;59249;59.736;30.568;2022-07-05T07:03:43;24.54;65.34
71128;SHT30;59249;59.736;30.568;2022-07-05T07:06:34;24.50;65.03
71128;SHT30;59249;59.736;30.568;2022-07-05T07:09:03;24.59;64.56
71128;SHT30;59249;59.736;30.568;2022-07-05T07:11:47;24.54;65.12
71128;SHT30;59249;59.736;30.568;2022-07-05T07:14:16;24.41;65.34
71128;SHT30;59249;59.736;30.568;2022-07-05T07:16:45;24.58;65.10
71128;SHT30;59249;59.736;30.568;2022-07-05T07:19:13;24.73;64.41
71128;SHT30;59249;59.736;30.568;2022-07-05T07:21:43;24.78;64.23
71128;SHT30;59249;59.736;30.568;2022-07-05T07:24:12;24.71;63.86
71128;SHT30;59249;59.736;30.568;2022-07-05T07:26:40;24.61;64.52
71128;SHT30;59249;59.736;30.568;2022-07-05T07:29:28;24.78;64.15
71128;SHT30;59249;59.736;30.568;2022-07-05T07:31:58;24.91;63.48
71128;SHT30;59249;59.736;30.568;2022-07-05T07:34:27;24.93;63.62
71128;SHT30;59249;59.736;30.568;2022-07-05T07:36:56;24.83;63.48
71128;SHT30;59249;59.736;30.568;2022-07-05T07:39:26;24.73;64.11
71128;SHT30;59249;59.736;30.568;2022-07-05T07:41:53;24.84;63.96
71128;SHT30;59249;59.736;30.568;2022-07-05T07:44:22;24.87;63.73
71128;SHT30;59249;59.736;30.568;2022-07-05T07:46:52;24.97;63.57
71128;SHT30;59249;59.736;30.568;2022-07-05T07:49:21;25.31;62.94
71128;SHT30;59249;59.736;30.568;2022-07-05T07:51:51;25.50;62.46
71128;SHT30;59249;59.736;30.568;2022-07-05T07:54:19;25.56;61.94
71128;SHT30;59249;59.736;30.568;2022-07-05T07:56:48;25.85;61.74
71128;SHT30;59249;59.736;30.568;2022-07-05T07:59:17;25.77;61.76
71128;SHT30;59249;59.736;30.568;2022-07-05T08:01:45;25.84;61.61
71128;SHT30;59249;59.736;30.568;2022-07-05T08:04:15;25.79;61.81
71128;SHT30;59249;59.736;30.568;2022-07-05T08:06:44;25.65;62.05
71128;SHT30;59249;59.736;30.568;2022-07-05T08:09:13;25.45;62.29
71128;SHT30;59249;59.736;30.568;2022-07-05T08:11:45;25.20;61.77
71128;SHT30;59249;59.736;30.568;2022-07-05T08:14:14;25.31;61.62
71128;SHT30;59249;59.736;30.568;2022-07-05T08:16:43;25.48;61.54
71128;SHT30;59249;59.736;30.568;2022-07-05T08:19:20;25.78;61.03
71128;SHT30;59249;59.736;30.568;2022-07-05T08:22:07;26.05;60.04
71128;SHT30;59249;59.736;30.568;2022-07-05T08:24:37;26.03;59.58
71128;SHT30;59249;59.736;30.568;2022-07-05T08:27:07;26.03;59.93
71128;SHT30;59249;59.736;30.568;2022-07-05T08:29:36;26.16;59.74
71128;SHT30;59249;59.736;30.568;2022-07-05T08:32:06;26.08;58.78
71128;SHT30;59249;59.736;30.568;2022-07-05T08:34:36;26.11;58.67
71128;SHT30;59249;59.736;30.568;2022-07-05T08:37:06;26.18;58.67
71128;SHT30;59249;59.736;30.568;2022-07-05T08:39:41;26.19;58.16
71128;SHT30;59249;59.736;30.568;2022-07-05T08:42:10;26.35;58.23
71128;SHT30;59249;59.736;30.568;2022-07-05T08:44:42;26.38;58.15
71128;SHT30;59249;59.736;30.568;2022-07-05T08:47:12;26.54;57.67
71128;SHT30;59249;59.736;30.568;2022-07-05T08:49:45;26.22;57.81
71128;SHT30;59249;59.736;30.568;2022-07-05T08:52:18;26.22;57.85
71128;SHT30;59249;59.736;30.568;2022-07-05T08:54:49;26.13;58.05
71128;SHT30;59249;59.736;30.568;2022-07-05T08:57:19;26.10;58.45
71128;SHT30;59249;59.736;30.568;2022-07-05T08:59:47;26.30;58.37
71128;SHT30;59249;59.736;30.568;2022-07-05T09:02:16;26.42;57.98
71128;SHT30;59249;59.736;30.568;2022-07-05T09:04:49;26.29;58.20
71128;SHT30;59249;59.736;30.568;2022-07-05T09:07:20;26.42;58.07
71128;SHT30;59249;59.736;30.568;2022-07-05T09:09:50;26.28;58.02
71128;SHT30;59249;59.736;30.568;2022-07-05T09:12:19;26.07;58.39
71128;SHT30;59249;59.736;30.568;2022-07-05T09:14:54;26.06;58.36
71128;SHT30;59249;59.736;30.568;2022-07-05T09:17:24;26.37;58.25
71128;SHT30;59249;59.736;30.568;2022-07-05T09:20:10;26.46;57.87
71128;SHT30;59249;59.736;30.568;2022-07-05T09:22:45;26.57;56.45
71128;SHT30;59249;59.736;30.568;2022-07-05T09:25:18;26.57;56.15
71128;SHT30;59249;59.736;30.568;2022-07-05T09:27:51;26.54;56.36
71128;SHT30;59249;59.736;30.568;2022-07-05T09:30:28;26.38;55.85
71128;SHT30;59249;59.736;30.568;2022-07-05T09:33:01;26.41;55.86
71128;SHT30;59249;59.736;30.568;2022-07-05T09:35:32;26.67;54.82
71128;SHT30;59249;59.736;30.568;2022-07-05T09:38:02;26.66;53.78
71128;SHT30;59249;59.736;30.568;2022-07-05T09:40:31;26.45;54.56
71128;SHT30;59249;59.736;30.568;2022-07-05T09:43:13;26.44;54.77
71128;SHT30;59249;59.736;30.568;2022-07-05T09:45:50;26.55;54.96
71128;SHT30;59249;59.736;30.568;2022-07-05T09:48:20;26.44;55.54
71128;SHT30;59249;59.736;30.568;2022-07-05T09:51:06;26.72;55.15
71128;SHT30;59249;59.736;30.568;2022-07-05T09:53:56;26.67;55.03
71128;SHT30;59249;59.736;30.568;2022-07-05T09:56:29;26.78;54.86
71128;SHT30;59249;59.736;30.568;2022-07-05T09:59:15;26.90;53.67
71128;SHT30;59249;59.736;30.568;2022-07-05T10:01:45;26.69;54.35
71128;SHT30;59249;59.736;30.568;2022-07-05T10:04:14;26.44;54.37
71128;SHT30;59249;59.736;30.568;2022-07-05T10:06:44;26.41;54.04
71128;SHT30;59249;59.736;30.568;2022-07-05T10:09:13;26.18;54.33
71128;SHT30;59249;59.736;30.568;2022-07-05T10:11:44;26.27;54.25
71128;SHT30;59249;59.736;30.568;2022-07-05T10:14:20;26.57;53.18
71128;SHT30;59249;59.736;30.568;2022-07-05T10:16:57;26.88;51.64
71128;SHT30;59249;59.736;30.568;2022-07-05T10:19:32;27.02;51.48
71128;SHT30;59249;59.736;30.568;2022-07-05T10:22:04;26.86;51.86
71128;SHT30;59249;59.736;30.568;2022-07-05T10:24:44;26.89;51.95
71128;SHT30;59249;59.736;30.568;2022-07-05T10:27:14;27.18;51.39
71128;SHT30;59249;59.736;30.568;2022-07-05T10:29:43;27.28;50.66
71128;SHT30;59249;59.736;30.568;2022-07-05T10:32:14;27.42;50.22
71128;SHT30;59249;59.736;30.568;2022-07-05T10:34:44;27.51;50.27
71128;SHT30;59249;59.736;30.568;2022-07-05T10:37:26;27.72;49.56
71128;SHT30;59249;59.736;30.568;2022-07-05T10:39:57;27.95;49.56
71128;SHT30;59249;59.736;30.568;2022-07-05T10:42:35;27.64;49.85
71128;SHT30;59249;59.736;30.568;2022-07-05T10:45:26;27.58;49.76
71128;SHT30;59249;59.736;30.568;2022-07-05T10:48:14;27.37;50.19
71128;SHT30;59249;59.736;30.568;2022-07-05T10:50:48;27.09;50.70
71128;SHT30;59249;59.736;30.568;2022-07-05T10:53:20;27.14;50.84
71128;SHT30;59249;59.736;30.568;2022-07-05T10:55:54;27.21;50.89
71128;SHT30;59249;59.736;30.568;2022-07-05T10:58:34;27.23;51.15
71128;SHT30;59249;59.736;30.568;2022-07-05T11:04:29;27.02;51.33
71128;SHT30;59249;59.736;30.568;2022-07-05T11:07:01;27.08;51.18
71128;SHT30;59249;59.736;30.568;2022-07-05T11:09:32;27.17;51.11
71128;SHT30;59249;59.736;30.568;2022-07-05T11:12:06;27.41;50.41
71128;SHT30;59249;59.736;30.568;2022-07-05T11:15:04;27.52;50.04
71128;SHT30;59249;59.736;30.568;2022-07-05T11:17:33;27.73;49.30
71128;SHT30;59249;59.736;30.568;2022-07-05T11:20:29;27.99;48.89
71128;SHT30;59249;59.736;30.568;2022-07-05T11:23:10;28.42;48.12
71128;SHT30;59249;59.736;30.568;2022-07-05T11:25:43;28.42;47.34
71128;SHT30;59249;59.736;30.568;2022-07-05T11:28:19;28.92;46.91
71128;SHT30;59249;59.736;30.568;2022-07-05T11:30:53;29.02;46.14
71128;SHT30;59249;59.736;30.568;2022-07-05T11:33:30;29.02;46.50
71128;SHT30;59249;59.736;30.568;2022-07-05T11:35:59;29.04;46.27
71128;SHT30;59249;59.736;30.568;2022-07-05T11:38:28;29.03;46.40
71128;SHT30;59249;59.736;30.568;2022-07-05T11:41:29;28.92;44.55
71128;SHT30;59249;59.736;30.568;2022-07-05T11:43:59;29.05;44.54
71128;SHT30;59249;59.736;30.568;2022-07-05T11:46:28;29.16;44.23
71128;SHT30;59249;59.736;30.568;2022-07-05T11:49:18;29.16;43.79
71128;SHT30;59249;59.736;30.568;2022-07-05T11:51:57;28.93;44.06
71128;SHT30;59249;59.736;30.568;2022-07-05T11:54:27;28.87;44.52
71128;SHT30;59249;59.736;30.568;2022-07-05T11:56:59;28.72;45.00
71128;SHT30;59249;59.736;30.568;2022-07-05T11:59:28;28.45;45.78
71128;SHT30;59249;59.736;30.568;2022-07-05T12:01:57;28.36;45.92
71128;SHT30;59249;59.736;30.568;2022-07-05T12:04:27;28.25;45.80
71128;SHT30;59249;59.736;30.568;2022-07-05T12:06:57;28.13;46.28
71128;SHT30;59249;59.736;30.568;2022-07-05T12:09:27;28.15;46.42
71128;SHT30;59249;59.736;30.568;2022-07-05T12:12:19;28.02;46.34
71128;SHT30;59249;59.736;30.568;2022-07-05T12:15:06;28.12;46.91
71128;SHT30;59249;59.736;30.568;2022-07-05T12:17:36;28.33;46.18
71128;SHT30;59249;59.736;30.568;2022-07-05T12:20:06;28.60;45.99
71128;SHT30;59249;59.736;30.568;2022-07-05T12:22:36;28.74;45.27
71128;SHT30;59249;59.736;30.568;2022-07-05T12:25:06;28.63;46.17
71128;SHT30;59249;59.736;30.568;2022-07-05T12:27:39;28.88;45.39
71128;SHT30;59249;59.736;30.568;2022-07-05T12:30:09;28.82;45.11
71128;SHT30;59249;59.736;30.568;2022-07-05T12:32:53;28.04;45.62
71128;SHT30;59249;59.736;30.568;2022-07-05T12:35:30;28.12;45.90
71128;SHT30;59249;59.736;30.568;2022-07-05T12:38:03;27.76;46.52
71128;SHT30;59249;59.736;30.568;2022-07-05T12:40:34;27.74;47.29
71128;SHT30;59249;59.736;30.568;2022-07-05T12:43:06;27.99;46.95
71128;SHT30;59249;59.736;30.568;2022-07-05T12:45:36;28.12;46.91
71128;SHT30;59249;59.736;30.568;2022-07-05T12:48:06;28.25;46.78
71128;SHT30;59249;59.736;30.568;2022-07-05T12:50:46;28.36;46.99
71128;SHT30;59249;59.736;30.568;2022-07-05T12:53:44;28.44;46.99
71128;SHT30;59249;59.736;30.568;2022-07-05T12:56:30;28.38;46.41
71128;SHT30;59249;59.736;30.568;2022-07-05T12:59:38;28.58;45.42
71128;SHT30;59249;59.736;30.568;2022-07-05T13:02:08;28.69;44.55
71128;SHT30;59249;59.736;30.568;2022-07-05T13:04:37;28.45;44.68
71128;SHT30;59249;59.736;30.568;2022-07-05T13:07:25;28.35;44.89
71128;SHT30;59249;59.736;30.568;2022-07-05T13:10:16;28.47;44.89
71128;SHT30;59249;59.736;30.568;2022-07-05T13:12:45;28.69;44.82
71128;SHT30;59249;59.736;30.568;2022-07-05T13:15:16;28.65;44.75
71128;SHT30;59249;59.736;30.568;2022-07-05T13:17:45;28.48;44.75
71128;SHT30;59249;59.736;30.568;2022-07-05T13:20:15;28.13;46.01
71128;SHT30;59249;59.736;30.568;2022-07-05T13:22:45;28.03;46.16
71128;SHT30;59249;59.736;30.568;2022-07-05T13:25:14;28.21;45.84
71128;SHT30;59249;59.736;30.568;2022-07-05T13:27:43;28.55;45.46
71128;SHT30;59249;59.736;30.568;2022-07-05T13:30:12;28.69;44.91
71128;SHT30;59249;59.736;30.568;2022-07-05T13:32:42;28.83;44.80
71128;SHT30;59249;59.736;30.568;2022-07-05T13:35:11;28.81;43.92
71128;SHT30;59249;59.736;30.568;2022-07-05T13:37:40;28.63;43.95
71128;SHT30;59249;59.736;30.568;2022-07-05T13:40:09;28.37;43.77
71128;SHT30;59249;59.736;30.568;2022-07-05T13:42:38;28.13;44.28
71128;SHT30;59249;59.736;30.568;2022-07-05T13:45:08;28.04;44.53
71128;SHT30;59249;59.736;30.568;2022-07-05T13:47:37;27.97;44.73
71128;SHT30;59249;59.736;30.568;2022-07-05T13:50:08;27.90;45.35
71128;SHT30;59249;59.736;30.568;2022-07-05T13:52:54;27.70;45.36
71128;SHT30;59249;59.736;30.568;2022-07-05T13:55:22;27.71;44.80
71128;SHT30;59249;59.736;30.568;2022-07-05T13:57:51;28.18;44.36
71128;SHT30;59249;59.736;30.568;2022-07-05T14:00:20;27.98;45.02
71128;SHT30;59249;59.736;30.568;2022-07-05T14:02:48;27.94;45.56
71128;SHT30;59249;59.736;30.568;2022-07-05T14:05:19;27.99;45.95
71128;SHT30;59249;59.736;30.568;2022-07-05T14:07:49;28.00;46.05
71128;SHT30;59249;59.736;30.568;2022-07-05T14:10:18;27.99;45.75
71128;SHT30;59249;59.736;30.568;2022-07-05T14:12:47;27.90;45.47
71128;SHT30;59249;59.736;30.568;2022-07-05T14:15:15;27.83;45.19
71128;SHT30;59249;59.736;30.568;2022-07-05T14:17:44;27.73;45.29
71128;SHT30;59249;59.736;30.568;2022-07-05T14:20:13;27.73;45.29
71128;SHT30;59249;59.736;30.568;2022-07-05T14:22:43;27.61;46.32
71128;SHT30;59249;59.736;30.568;2022-07-05T14:25:12;27.52;45.84
71128;SHT30;59249;59.736;30.568;2022-07-05T14:27:41;27.86;46.91
71128;SHT30;59249;59.736;30.568;2022-07-05T14:30:10;28.00;48.73
71128;SHT30;59249;59.736;30.568;2022-07-05T14:32:42;27.47;51.06
71128;SHT30;59249;59.736;30.568;2022-07-05T14:35:15;27.19;52.30
71128;SHT30;59249;59.736;30.568;2022-07-05T14:37:45;27.60;51.43
71128;SHT30;59249;59.736;30.568;2022-07-05T14:40:16;28.01;51.00
71128;SHT30;59249;59.736;30.568;2022-07-05T14:42:46;28.27;50.19
71128;SHT30;59249;59.736;30.568;2022-07-05T14:45:14;28.51;49.59
71128;SHT30;59249;59.736;30.568;2022-07-05T14:47:43;28.62;49.54
71128;SHT30;59249;59.736;30.568;2022-07-05T14:50:12;28.30;49.56
71128;SHT30;59249;59.736;30.568;2022-07-05T14:52:41;28.21;50.14
71128;SHT30;59249;59.736;30.568;2022-07-05T14:55:11;28.83;48.82
71128;SHT30;59249;59.736;30.568;2022-07-05T14:57:41;28.89;48.55
71128;SHT30;59249;59.736;30.568;2022-07-05T15:00:12;29.00;47.83
71128;SHT30;59249;59.736;30.568;2022-07-05T15:02:41;29.02;47.36
71128;SHT30;59249;59.736;30.568;2022-07-05T15:05:10;29.07;47.65
71128;SHT30;59249;59.736;30.568;2022-07-05T15:07:39;29.46;47.11
71128;SHT30;59249;59.736;30.568;2022-07-05T15:10:08;29.44;46.45
71128;SHT30;59249;59.736;30.568;2022-07-05T15:12:39;29.63;45.85
71128;SHT30;59249;59.736;30.568;2022-07-05T15:15:08;29.58;45.53
71128;SHT30;59249;59.736;30.568;2022-07-05T15:17:37;29.70;44.94
71128;SHT30;59249;59.736;30.568;2022-07-05T15:20:11;30.02;44.92
71128;SHT30;59249;59.736;30.568;2022-07-05T15:22:40;30.21;44.33
71128;SHT30;59249;59.736;30.568;2022-07-05T15:25:08;30.21;43.57
71128;SHT30;59249;59.736;30.568;2022-07-05T15:27:39;30.37;43.62
71128;SHT30;59249;59.736;30.568;2022-07-05T15:30:09;30.54;43.67
71128;SHT30;59249;59.736;30.568;2022-07-05T15:32:38;30.43;43.45
71128;SHT30;59249;59.736;30.568;2022-07-05T15:35:07;30.68;43.33
71128;SHT30;59249;59.736;30.568;2022-07-05T15:37:36;30.50;43.61
71128;SHT30;59249;59.736;30.568;2022-07-05T15:40:06;30.41;43.69
71128;SHT30;59249;59.736;30.568;2022-07-05T15:42:35;30.49;43.90
71128;SHT30;59249;59.736;30.568;2022-07-05T15:45:05;30.23;44.11